Bookmark and Share
Track history (hours):
 

Drifting buoy 41607

Last reported at 2014-Apr-21 01:00 UTC. Time now 2014-Apr-21 03:08 UTC.
Position N 28°10' W 048°46'.

Water temperature 23.1 ° C

NotesDate/timePositionNaut miles runAvg speedWind from/ knotsBaromVisibWave heightAir tempDewpointWater temp
2014-Apr-21 01:00N 28°10' W 048°46'0 0.1 23.1
2014-Apr-21 00:00N 28°10' W 048°46'0 0.3 23.1
2014-Apr-20 23:00N 28°10' W 048°47'1 0.9 23.2
2014-Apr-20 22:00N 28°11' W 048°47'1 0.2 23.3
2014-Apr-20 18:00N 28°12' W 048°47'1 0.3 23.7
2014-Apr-20 15:00N 28°12' W 048°47'1 0.6 23.2
2014-Apr-20 14:00N 28°13' W 048°47'1 0.3 22.7
2014-Apr-20 11:00N 28°13' W 048°48'1 0.3 22.2
2014-Apr-20 09:00N 28°14' W 048°48'1 0.4 22.2
2014-Apr-20 07:00N 28°14' W 048°49'1 0.5 22.2
2014-Apr-20 05:00N 28°15' W 048°49'0 0.2 22.2
2014-Apr-20 03:00N 28°15' W 048°50'0 0.0 22.2
2014-Apr-20 02:00N 28°15' W 048°50'0 0.0 22.2
2014-Apr-20 01:00N 28°15' W 048°50'0 0.2 22.2
2014-Apr-19 22:00N 28°15' W 048°50'1 0.3 22.3
2014-Apr-19 20:00N 28°16' W 048°51'0 0.0 22.3
2014-Apr-19 19:00N 28°16' W 048°51'1 0.7 22.3
2014-Apr-19 18:00N 28°16' W 048°50'0 0.0 22.3
2014-Apr-19 17:00N 28°16' W 048°50'0 0.1 22.3
2014-Apr-19 15:00N 28°16' W 048°50'1 0.8 22.3
2014-Apr-19 14:00N 28°17' W 048°50'0 0.5 22.2
2014-Apr-19 13:00N 28°17' W 048°50'0 0.0 22.2
2014-Apr-19 12:00N 28°17' W 048°50'1 0.2 22.2
2014-Apr-19 09:00N 28°18' W 048°50'1 0.8 22.2
2014-Apr-19 08:00N 28°18' W 048°50'0 0.0 22.2
2014-Apr-19 07:00N 28°18' W 048°50'0 0.0 22.2
2014-Apr-19 06:00N 28°18' W 048°50'1 0.1 22.2
2014-Apr-19 01:00N 28°19' W 048°51'0 0.2 22.2
2014-Apr-19 00:00N 28°19' W 048°51'1 0.4 22.2
2014-Apr-18 20:00N 28°20' W 048°52'0 0.0 22.2
2014-Apr-18 19:00N 28°20' W 048°52'2 0.7 22.2
2014-Apr-18 16:00N 28°22' W 048°50'0 0.0 22.2
2014-Apr-18 15:00N 28°22' W 048°50'1 0.6 22.1
2014-Apr-18 13:00N 28°23' W 048°50'0 0.0 22.1
2014-Apr-18 11:00N 28°23' W 048°50'1 0.4 22.1
2014-Apr-18 09:00N 28°24' W 048°50'0 0.0 22.1
2014-Apr-18 08:00N 28°24' W 048°50'3 3.0 22.1
2014-Apr-18 07:00N 28°26' W 048°51'0 0.0 22.1
2014-Apr-18 06:00N 28°26' W 048°51'0 0.1 22.1
2014-Apr-18 01:00N 28°27' W 048°51'1 0.8 22.1
2014-Apr-18 00:00N 28°28' W 048°51'0 0.3 22.1
2014-Apr-17 23:00N 28°28' W 048°51'1 1.0 22.1
2014-Apr-17 22:00N 28°29' W 048°51'0 0.0 22.1
2014-Apr-17 21:00N 28°29' W 048°51'1 1.3 22.1
2014-Apr-17 20:00N 28°30' W 048°52'0 0.0 22.2
2014-Apr-17 17:00N 28°30' W 048°52'0 0.4 22.2
2014-Apr-17 16:00N 28°29' W 048°52'3 0.8 22.1
2014-Apr-17 13:00N 28°32' W 048°52'0 0.0 22.1
2014-Apr-17 12:00N 28°32' W 048°52'0 0.0 22.1
2014-Apr-17 11:00N 28°32' W 048°52'0 0.4 22.1
2014-Apr-17 10:00N 28°32' W 048°51'1 1.1 22.1
2014-Apr-17 09:00N 28°33' W 048°52'0 0.0 22.1
2014-Apr-17 08:00N 28°33' W 048°52'1 0.7 22.1
2014-Apr-17 07:00N 28°34' W 048°51'0 0.0 22.1
2014-Apr-17 06:00N 28°34' W 048°51'2 1.6 22.1
2014-Apr-17 05:00N 28°35' W 048°52'0 0.0 22.1
2014-Apr-17 03:00N 28°35' W 048°52'0 0.0 22.1
2014-Apr-17 01:00N 28°35' W 048°52'1 0.8 22.1
2014-Apr-17 00:00N 28°36' W 048°52'1 0.4 22.2
2014-Apr-16 21:00N 28°37' W 048°51'0 0.1 22.2
2014-Apr-16 19:00N 28°37' W 048°51'1 0.3 22.2
2014-Apr-16 17:00N 28°38' W 048°51'1 0.2 22.2
2014-Apr-16 12:00N 28°38' W 048°51'0 0.0 22.1
2014-Apr-16 11:00N 28°38' W 048°51'0 0.0 22.1
2014-Apr-16 09:00N 28°38' W 048°51'0 0.5 22.1
2014-Apr-16 08:00N 28°39' W 048°50'1 0.5 22.1
2014-Apr-16 06:00N 28°40' W 048°50'1 0.1 22.1
2014-Apr-16 01:00N 28°40' W 048°50'0 0.5 22.1
2014-Apr-16 00:00N 28°40' W 048°51'0 0.1 22.1
2014-Apr-15 23:00N 28°41' W 048°51'1 1.2 22.0
2014-Apr-15 22:00N 28°41' W 048°49'0 0.4 22.0
2014-Apr-15 21:00N 28°41' W 048°50'0 0.4 22.0
2014-Apr-15 20:00N 28°41' W 048°49'1 0.8 22.0
2014-Apr-15 19:00N 28°41' W 048°50'0 0.0 22.0
2014-Apr-15 17:00N 28°41' W 048°50'0 0.5 22.0
2014-Apr-15 16:00N 28°42' W 048°50'0 0.0 22.0
2014-Apr-15 15:00N 28°42' W 048°50'0 0.0 22.0
2014-Apr-15 14:00N 28°42' W 048°50'0 0.2 21.9
2014-Apr-15 12:00N 28°42' W 048°50'1 0.3 21.9
2014-Apr-15 08:00N 28°43' W 048°49'0 0.4 21.9
2014-Apr-15 07:00N 28°43' W 048°49'1 0.6 21.9
2014-Apr-15 06:00N 28°44' W 048°49'0 0.0 21.9
2014-Apr-15 05:00N 28°44' W 048°49'1 0.3 21.9
2014-Apr-15 01:00N 28°45' W 048°49'1 0.2 21.9
2014-Apr-14 20:00N 28°46' W 048°48'1 0.8 22.0
2014-Apr-14 19:00N 28°46' W 048°49'0 0.0 22.0
2014-Apr-14 18:00N 28°46' W 048°49'0 0.0 22.0
2014-Apr-14 16:00N 28°46' W 048°49'2 2.4 22.0
2014-Apr-14 15:00N 28°47' W 048°46'0 0.4 22.0
2014-Apr-14 14:00N 28°48' W 048°46'0 0.3 22.0
2014-Apr-14 13:00N 28°48' W 048°46'2 0.5 22.0
2014-Apr-14 09:00N 28°49' W 048°44'2 1.5 22.0
2014-Apr-14 08:00N 28°50' W 048°44'0 0.0 22.0
2014-Apr-14 06:00N 28°50' W 048°44'0 0.0 22.1
2014-Apr-14 05:00N 28°50' W 048°44'1 1.3 22.1
2014-Apr-14 04:00N 28°51' W 048°43'1 0.3 22.1
2014-Apr-14 02:00N 28°51' W 048°43'2 0.6 22.2
2014-Apr-13 23:00N 28°53' W 048°41'0 0.5 22.3
2014-Apr-13 22:00N 28°53' W 048°42'0 0.0 22.3
2014-Apr-13 21:00N 28°53' W 048°42'2 0.3 22.4
2014-Apr-13 14:00N 28°54' W 048°40'1 0.6 22.3
2014-Apr-13 12:00N 28°55' W 048°40'0 0.0 22.2
2014-Apr-13 09:00N 28°55' W 048°40'1 0.3 22.2
2014-Apr-13 06:00N 28°56' W 048°38'2 0.4 22.3
2014-Apr-13 02:00N 28°57' W 048°37'1 1.0 22.6
2014-Apr-13 01:00N 28°57' W 048°38'1 1.0 22.7
2014-Apr-13 00:00N 28°57' W 048°37'0 0.4 22.7
2014-Apr-12 23:00N 28°58' W 048°37'1 0.3 22.9
2014-Apr-12 21:00N 28°58' W 048°37'0 0.0 23.5
2014-Apr-12 20:00N 28°58' W 048°37'1 0.3 23.8
2014-Apr-12 18:00N 28°59' W 048°37'1 0.8 23.8
2014-Apr-12 17:00N 28°59' W 048°36'0 0.2 23.4
2014-Apr-12 15:00N 28°59' W 048°37'1 0.7 23.1
2014-Apr-12 14:00N 28°60' W 048°36'1 0.4 22.9
2014-Apr-12 12:00N 29°00' W 048°35'0 0.0 22.3
2014-Apr-12 11:00N 29°00' W 048°35'1 0.9 22.2
2014-Apr-12 10:00N 29°01' W 048°35'0 0.0 22.2
2014-Apr-12 09:00N 29°01' W 048°35'0 0.4 22.2
2014-Apr-12 08:00N 29°01' W 048°35'0 0.0 22.2
2014-Apr-12 07:00N 29°01' W 048°35'1 1.1 22.2
2014-Apr-12 06:00N 29°01' W 048°34'0 0.0 22.3
2014-Apr-12 05:00N 29°01' W 048°34'2 0.4 22.3
2014-Apr-12 01:00N 29°03' W 048°33'1 0.5 22.5
2014-Apr-12 00:00N 29°03' W 048°34'1 0.8 22.5
2014-Apr-11 23:00N 29°03' W 048°33'2 0.3 22.5
2014-Apr-11 18:00N 29°05' W 048°32'0 0.1 23.2
2014-Apr-11 15:00N 29°04' W 048°32'1 0.9 22.5
2014-Apr-11 14:00N 29°05' W 048°31'0 0.2 22.3
2014-Apr-11 12:00N 29°05' W 048°31'0 0.1 22.1
2014-Apr-11 10:00N 29°05' W 048°30'1 0.9 22.1
2014-Apr-11 09:00N 29°06' W 048°30'1 0.3 22.1
2014-Apr-11 06:00N 29°06' W 048°29'1 0.3 22.2
2014-Apr-11 03:00N 29°07' W 048°28'1 0.3 22.3
2014-Apr-11 01:00N 29°07' W 048°28'   22.4

Dump ship's entire track history

sailing weather and tide predictions

Buoy 41607